sensor_id;sensor_type;location;lat;lon;timestamp;P1;durP1;ratioP1;P2;durP2;ratioP2
64210;SDS011;50528;48.514;14.394;2023-02-03T00:00:00;3.30;;;3.00;;
64210;SDS011;50528;48.514;14.394;2023-02-03T00:01:02;3.60;;;2.70;;
64210;SDS011;50528;48.514;14.394;2023-02-03T00:01:37;3.60;;;3.00;;
64210;SDS011;50528;48.514;14.394;2023-02-03T00:02:11;3.10;;;2.70;;
64210;SDS011;50528;48.514;14.394;2023-02-03T00:02:45;3.40;;;2.70;;
64210;SDS011;50528;48.514;14.394;2023-02-03T00:03:20;3.30;;;2.60;;
64210;SDS011;50528;48.514;14.394;2023-02-03T00:03:54;3.40;;;2.90;;
64210;SDS011;50528;48.514;14.394;2023-02-03T00:04:27;4.10;;;3.00;;
64210;SDS011;50528;48.514;14.394;2023-02-03T00:05:01;3.50;;;2.80;;
64210;SDS011;50528;48.514;14.394;2023-02-03T00:05:35;3.40;;;2.80;;
64210;SDS011;50528;48.514;14.394;2023-02-03T00:06:09;3.50;;;2.90;;
64210;SDS011;50528;48.514;14.394;2023-02-03T00:06:42;3.80;;;3.10;;
64210;SDS011;50528;48.514;14.394;2023-02-03T00:07:17;3.60;;;2.90;;
64210;SDS011;50528;48.514;14.394;2023-02-03T00:07:51;3.40;;;3.10;;
64210;SDS011;50528;48.514;14.394;2023-02-03T00:08:24;3.60;;;3.20;;
64210;SDS011;50528;48.514;14.394;2023-02-03T00:08:58;3.50;;;3.10;;
64210;SDS011;50528;48.514;14.394;2023-02-03T00:09:33;3.30;;;2.70;;
64210;SDS011;50528;48.514;14.394;2023-02-03T00:10:07;3.60;;;2.90;;
64210;SDS011;50528;48.514;14.394;2023-02-03T00:10:44;3.50;;;2.80;;
64210;SDS011;50528;48.514;14.394;2023-02-03T00:11:18;3.30;;;2.70;;
64210;SDS011;50528;48.514;14.394;2023-02-03T00:11:52;3.60;;;2.90;;
64210;SDS011;50528;48.514;14.394;2023-02-03T00:12:26;3.30;;;2.90;;
64210;SDS011;50528;48.514;14.394;2023-02-03T00:13:00;3.30;;;2.70;;
64210;SDS011;50528;48.514;14.394;2023-02-03T00:13:34;3.50;;;2.80;;
64210;SDS011;50528;48.514;14.394;2023-02-03T00:14:08;3.20;;;2.80;;
64210;SDS011;50528;48.514;14.394;2023-02-03T00:14:41;3.30;;;2.90;;
64210;SDS011;50528;48.514;14.394;2023-02-03T00:15:15;3.20;;;2.80;;
64210;SDS011;50528;48.514;14.394;2023-02-03T00:15:49;3.20;;;2.70;;
64210;SDS011;50528;48.514;14.394;2023-02-03T00:16:22;3.30;;;2.90;;
64210;SDS011;50528;48.514;14.394;2023-02-03T00:16:56;3.50;;;3.00;;
64210;SDS011;50528;48.514;14.394;2023-02-03T00:17:30;3.40;;;2.90;;
64210;SDS011;50528;48.514;14.394;2023-02-03T00:18:03;3.10;;;2.60;;
64210;SDS011;50528;48.514;14.394;2023-02-03T00:18:37;3.10;;;2.70;;
64210;SDS011;50528;48.514;14.394;2023-02-03T00:19:11;3.20;;;2.90;;
64210;SDS011;50528;48.514;14.394;2023-02-03T00:19:44;3.40;;;2.70;;
64210;SDS011;50528;48.514;14.394;2023-02-03T00:20:18;3.10;;;2.70;;
64210;SDS011;50528;48.514;14.394;2023-02-03T00:20:51;3.60;;;2.90;;
64210;SDS011;50528;48.514;14.394;2023-02-03T00:21:25;3.10;;;2.70;;
64210;SDS011;50528;48.514;14.394;2023-02-03T00:21:58;3.30;;;2.90;;
64210;SDS011;50528;48.514;14.394;2023-02-03T00:22:32;3.10;;;2.60;;
64210;SDS011;50528;48.514;14.394;2023-02-03T00:23:09;3.10;;;2.60;;
64210;SDS011;50528;48.514;14.394;2023-02-03T00:23:44;3.40;;;3.00;;
64210;SDS011;50528;48.514;14.394;2023-02-03T00:24:17;3.30;;;2.80;;
64210;SDS011;50528;48.514;14.394;2023-02-03T00:24:52;3.30;;;2.80;;
64210;SDS011;50528;48.514;14.394;2023-02-03T00:25:26;3.50;;;2.70;;
64210;SDS011;50528;48.514;14.394;2023-02-03T00:26:12;3.10;;;2.60;;
64210;SDS011;50528;48.514;14.394;2023-02-03T00:26:48;3.10;;;2.50;;
64210;SDS011;50528;48.514;14.394;2023-02-03T00:27:22;3.50;;;2.60;;
64210;SDS011;50528;48.514;14.394;2023-02-03T00:27:55;3.00;;;2.60;;
64210;SDS011;50528;48.514;14.394;2023-02-03T00:28:30;3.10;;;2.50;;
64210;SDS011;50528;48.514;14.394;2023-02-03T00:29:05;4.20;;;2.50;;
64210;SDS011;50528;48.514;14.394;2023-02-03T00:29:39;3.20;;;2.70;;
64210;SDS011;50528;48.514;14.394;2023-02-03T00:30:13;4.00;;;2.40;;
64210;SDS011;50528;48.514;14.394;2023-02-03T00:30:46;3.40;;;2.60;;
64210;SDS011;50528;48.514;14.394;2023-02-03T00:31:21;3.20;;;2.50;;
64210;SDS011;50528;48.514;14.394;2023-02-03T00:31:56;3.10;;;2.50;;
64210;SDS011;50528;48.514;14.394;2023-02-03T00:32:31;2.90;;;2.30;;
64210;SDS011;50528;48.514;14.394;2023-02-03T00:33:04;2.80;;;2.30;;
64210;SDS011;50528;48.514;14.394;2023-02-03T00:33:38;2.90;;;2.30;;
64210;SDS011;50528;48.514;14.394;2023-02-03T00:34:11;2.80;;;2.10;;
64210;SDS011;50528;48.514;14.394;2023-02-03T00:34:45;2.60;;;2.10;;
64210;SDS011;50528;48.514;14.394;2023-02-03T00:35:19;2.90;;;2.20;;
64210;SDS011;50528;48.514;14.394;2023-02-03T00:35:52;2.60;;;2.10;;
64210;SDS011;50528;48.514;14.394;2023-02-03T00:36:26;2.70;;;2.20;;
64210;SDS011;50528;48.514;14.394;2023-02-03T00:37:00;2.70;;;2.20;;
64210;SDS011;50528;48.514;14.394;2023-02-03T00:37:34;3.00;;;2.40;;
64210;SDS011;50528;48.514;14.394;2023-02-03T00:38:07;2.90;;;2.40;;
64210;SDS011;50528;48.514;14.394;2023-02-03T00:38:41;2.70;;;2.20;;
64210;SDS011;50528;48.514;14.394;2023-02-03T00:39:14;2.90;;;2.10;;
64210;SDS011;50528;48.514;14.394;2023-02-03T00:39:51;2.90;;;2.10;;
64210;SDS011;50528;48.514;14.394;2023-02-03T00:40:25;2.60;;;1.80;;
64210;SDS011;50528;48.514;14.394;2023-02-03T00:40:59;2.70;;;2.20;;
64210;SDS011;50528;48.514;14.394;2023-02-03T00:41:33;2.60;;;1.90;;
64210;SDS011;50528;48.514;14.394;2023-02-03T00:42:07;2.70;;;2.10;;
64210;SDS011;50528;48.514;14.394;2023-02-03T00:42:40;2.50;;;2.00;;
64210;SDS011;50528;48.514;14.394;2023-02-03T00:43:14;2.70;;;2.20;;
64210;SDS011;50528;48.514;14.394;2023-02-03T00:43:47;2.60;;;2.10;;
64210;SDS011;50528;48.514;14.394;2023-02-03T00:44:21;2.70;;;2.10;;
64210;SDS011;50528;48.514;14.394;2023-02-03T00:44:56;2.50;;;1.90;;
64210;SDS011;50528;48.514;14.394;2023-02-03T00:45:29;2.50;;;1.90;;
64210;SDS011;50528;48.514;14.394;2023-02-03T00:46:03;2.50;;;2.00;;
64210;SDS011;50528;48.514;14.394;2023-02-03T00:46:37;2.50;;;2.00;;
64210;SDS011;50528;48.514;14.394;2023-02-03T00:47:10;2.40;;;1.90;;
64210;SDS011;50528;48.514;14.394;2023-02-03T00:47:44;2.70;;;2.00;;
64210;SDS011;50528;48.514;14.394;2023-02-03T00:48:18;2.60;;;2.10;;
64210;SDS011;50528;48.514;14.394;2023-02-03T00:48:52;2.80;;;2.10;;
64210;SDS011;50528;48.514;14.394;2023-02-03T00:49:26;2.60;;;2.00;;
64210;SDS011;50528;48.514;14.394;2023-02-03T00:50:00;2.80;;;2.10;;
64210;SDS011;50528;48.514;14.394;2023-02-03T00:50:34;2.70;;;2.20;;
64210;SDS011;50528;48.514;14.394;2023-02-03T00:51:07;2.70;;;2.00;;
64210;SDS011;50528;48.514;14.394;2023-02-03T00:51:41;2.60;;;1.90;;
64210;SDS011;50528;48.514;14.394;2023-02-03T00:52:14;2.70;;;2.10;;
64210;SDS011;50528;48.514;14.394;2023-02-03T00:52:48;2.50;;;2.10;;
64210;SDS011;50528;48.514;14.394;2023-02-03T00:53:22;2.60;;;2.10;;
64210;SDS011;50528;48.514;14.394;2023-02-03T00:54:23;2.20;;;1.70;;
64210;SDS011;50528;48.514;14.394;2023-02-03T00:55:42;2.10;;;1.40;;
64210;SDS011;50528;48.514;14.394;2023-02-03T00:56:16;2.50;;;1.70;;
64210;SDS011;50528;48.514;14.394;2023-02-03T00:56:50;2.60;;;1.70;;
64210;SDS011;50528;48.514;14.394;2023-02-03T00:57:23;2.60;;;1.70;;
64210;SDS011;50528;48.514;14.394;2023-02-03T00:57:57;2.20;;;1.50;;
64210;SDS011;50528;48.514;14.394;2023-02-03T00:58:31;2.50;;;1.70;;
64210;SDS011;50528;48.514;14.394;2023-02-03T00:59:04;2.10;;;1.50;;
64210;SDS011;50528;48.514;14.394;2023-02-03T00:59:39;2.50;;;1.70;;
64210;SDS011;50528;48.514;14.394;2023-02-03T01:00:14;2.40;;;1.80;;
64210;SDS011;50528;48.514;14.394;2023-02-03T01:00:48;2.40;;;1.60;;
64210;SDS011;50528;48.514;14.394;2023-02-03T01:01:23;2.60;;;1.80;;
64210;SDS011;50528;48.514;14.394;2023-02-03T01:01:56;2.30;;;1.70;;
64210;SDS011;50528;48.514;14.394;2023-02-03T01:02:30;2.40;;;1.80;;
64210;SDS011;50528;48.514;14.394;2023-02-03T01:03:04;2.60;;;1.90;;
64210;SDS011;50528;48.514;14.394;2023-02-03T01:03:38;2.50;;;1.90;;
64210;SDS011;50528;48.514;14.394;2023-02-03T01:04:11;2.20;;;1.50;;
64210;SDS011;50528;48.514;14.394;2023-02-03T01:04:45;2.40;;;1.80;;
64210;SDS011;50528;48.514;14.394;2023-02-03T01:05:18;2.70;;;2.10;;
64210;SDS011;50528;48.514;14.394;2023-02-03T01:05:52;2.50;;;1.90;;
64210;SDS011;50528;48.514;14.394;2023-02-03T01:06:26;2.60;;;2.10;;
64210;SDS011;50528;48.514;14.394;2023-02-03T01:07:00;2.80;;;2.10;;
64210;SDS011;50528;48.514;14.394;2023-02-03T01:07:34;3.10;;;2.20;;
64210;SDS011;50528;48.514;14.394;2023-02-03T01:08:09;3.00;;;2.30;;
64210;SDS011;50528;48.514;14.394;2023-02-03T01:08:45;3.10;;;2.60;;
64210;SDS011;50528;48.514;14.394;2023-02-03T01:09:20;2.70;;;2.10;;
64210;SDS011;50528;48.514;14.394;2023-02-03T01:09:54;2.80;;;2.30;;
64210;SDS011;50528;48.514;14.394;2023-02-03T01:10:28;2.60;;;2.10;;
64210;SDS011;50528;48.514;14.394;2023-02-03T01:11:09;2.70;;;2.20;;
64210;SDS011;50528;48.514;14.394;2023-02-03T01:11:47;3.00;;;2.30;;
64210;SDS011;50528;48.514;14.394;2023-02-03T01:12:20;2.80;;;2.40;;
64210;SDS011;50528;48.514;14.394;2023-02-03T01:12:54;3.00;;;2.50;;
64210;SDS011;50528;48.514;14.394;2023-02-03T01:13:28;3.10;;;2.60;;
64210;SDS011;50528;48.514;14.394;2023-02-03T01:14:01;3.20;;;2.70;;
64210;SDS011;50528;48.514;14.394;2023-02-03T01:14:35;3.10;;;2.40;;
64210;SDS011;50528;48.514;14.394;2023-02-03T01:15:09;3.20;;;2.60;;
64210;SDS011;50528;48.514;14.394;2023-02-03T01:15:46;2.80;;;2.20;;
64210;SDS011;50528;48.514;14.394;2023-02-03T01:16:20;2.80;;;2.40;;
64210;SDS011;50528;48.514;14.394;2023-02-03T01:16:56;3.20;;;2.40;;
64210;SDS011;50528;48.514;14.394;2023-02-03T01:17:30;2.90;;;2.50;;
64210;SDS011;50528;48.514;14.394;2023-02-03T01:18:03;3.00;;;2.40;;
64210;SDS011;50528;48.514;14.394;2023-02-03T01:18:37;2.90;;;2.40;;
64210;SDS011;50528;48.514;14.394;2023-02-03T01:19:11;3.30;;;2.40;;
64210;SDS011;50528;48.514;14.394;2023-02-03T01:19:46;3.00;;;2.40;;
64210;SDS011;50528;48.514;14.394;2023-02-03T01:20:21;2.80;;;2.30;;
64210;SDS011;50528;48.514;14.394;2023-02-03T01:20:56;2.60;;;2.20;;
64210;SDS011;50528;48.514;14.394;2023-02-03T01:21:31;2.90;;;2.30;;
64210;SDS011;50528;48.514;14.394;2023-02-03T01:22:04;3.00;;;2.40;;
64210;SDS011;50528;48.514;14.394;2023-02-03T01:22:38;2.90;;;2.20;;
64210;SDS011;50528;48.514;14.394;2023-02-03T01:23:12;2.60;;;2.20;;
64210;SDS011;50528;48.514;14.394;2023-02-03T01:23:46;3.00;;;2.20;;
64210;SDS011;50528;48.514;14.394;2023-02-03T01:24:20;2.80;;;2.20;;
64210;SDS011;50528;48.514;14.394;2023-02-03T01:24:53;2.70;;;2.20;;
64210;SDS011;50528;48.514;14.394;2023-02-03T01:25:27;2.80;;;2.20;;
64210;SDS011;50528;48.514;14.394;2023-02-03T01:26:01;2.80;;;2.10;;
64210;SDS011;50528;48.514;14.394;2023-02-03T01:26:39;2.70;;;2.10;;
64210;SDS011;50528;48.514;14.394;2023-02-03T01:27:13;2.40;;;1.90;;
64210;SDS011;50528;48.514;14.394;2023-02-03T01:27:47;3.20;;;2.00;;
64210;SDS011;50528;48.514;14.394;2023-02-03T01:28:21;2.90;;;2.10;;
64210;SDS011;50528;48.514;14.394;2023-02-03T01:28:57;2.70;;;2.10;;
64210;SDS011;50528;48.514;14.394;2023-02-03T01:29:32;2.30;;;1.70;;
64210;SDS011;50528;48.514;14.394;2023-02-03T01:30:06;2.80;;;2.20;;
64210;SDS011;50528;48.514;14.394;2023-02-03T01:30:40;2.20;;;1.70;;
64210;SDS011;50528;48.514;14.394;2023-02-03T01:31:15;2.50;;;1.90;;
64210;SDS011;50528;48.514;14.394;2023-02-03T01:31:50;2.50;;;1.80;;
64210;SDS011;50528;48.514;14.394;2023-02-03T01:32:24;2.40;;;1.80;;
64210;SDS011;50528;48.514;14.394;2023-02-03T01:32:58;2.50;;;1.70;;
64210;SDS011;50528;48.514;14.394;2023-02-03T01:33:32;2.20;;;1.70;;
64210;SDS011;50528;48.514;14.394;2023-02-03T01:34:07;2.40;;;2.00;;
64210;SDS011;50528;48.514;14.394;2023-02-03T01:34:48;2.50;;;1.90;;
64210;SDS011;50528;48.514;14.394;2023-02-03T01:35:22;2.50;;;1.80;;
64210;SDS011;50528;48.514;14.394;2023-02-03T01:35:55;2.60;;;1.90;;
64210;SDS011;50528;48.514;14.394;2023-02-03T01:36:33;2.40;;;1.80;;
64210;SDS011;50528;48.514;14.394;2023-02-03T01:37:10;2.70;;;1.70;;
64210;SDS011;50528;48.514;14.394;2023-02-03T01:37:43;2.50;;;1.90;;
64210;SDS011;50528;48.514;14.394;2023-02-03T01:38:17;2.50;;;2.00;;
64210;SDS011;50528;48.514;14.394;2023-02-03T01:38:50;2.60;;;1.80;;
64210;SDS011;50528;48.514;14.394;2023-02-03T01:39:26;2.20;;;1.60;;
64210;SDS011;50528;48.514;14.394;2023-02-03T01:39:59;2.30;;;1.60;;
64210;SDS011;50528;48.514;14.394;2023-02-03T01:40:33;2.50;;;1.80;;
64210;SDS011;50528;48.514;14.394;2023-02-03T01:41:08;2.40;;;1.80;;
64210;SDS011;50528;48.514;14.394;2023-02-03T01:41:44;2.20;;;1.60;;
64210;SDS011;50528;48.514;14.394;2023-02-03T01:42:18;2.30;;;1.70;;
64210;SDS011;50528;48.514;14.394;2023-02-03T01:42:52;2.40;;;1.80;;
64210;SDS011;50528;48.514;14.394;2023-02-03T01:43:29;2.30;;;1.80;;
64210;SDS011;50528;48.514;14.394;2023-02-03T01:45:25;2.30;;;1.60;;
64210;SDS011;50528;48.514;14.394;2023-02-03T01:45:59;2.50;;;1.80;;
64210;SDS011;50528;48.514;14.394;2023-02-03T01:46:42;2.50;;;1.60;;
64210;SDS011;50528;48.514;14.394;2023-02-03T01:47:30;2.50;;;1.80;;
64210;SDS011;50528;48.514;14.394;2023-02-03T01:48:08;2.10;;;1.50;;
64210;SDS011;50528;48.514;14.394;2023-02-03T01:48:42;2.50;;;1.70;;
64210;SDS011;50528;48.514;14.394;2023-02-03T01:49:22;2.20;;;1.60;;
64210;SDS011;50528;48.514;14.394;2023-02-03T01:50:39;2.60;;;1.70;;
64210;SDS011;50528;48.514;14.394;2023-02-03T01:51:12;2.20;;;1.70;;
64210;SDS011;50528;48.514;14.394;2023-02-03T01:51:46;2.30;;;1.60;;
64210;SDS011;50528;48.514;14.394;2023-02-03T01:52:21;2.20;;;1.60;;
64210;SDS011;50528;48.514;14.394;2023-02-03T01:52:57;2.30;;;1.70;;
64210;SDS011;50528;48.514;14.394;2023-02-03T01:53:35;2.30;;;1.60;;
64210;SDS011;50528;48.514;14.394;2023-02-03T01:54:11;2.50;;;1.90;;
64210;SDS011;50528;48.514;14.394;2023-02-03T01:54:48;2.40;;;1.80;;
64210;SDS011;50528;48.514;14.394;2023-02-03T01:55:27;2.30;;;1.80;;
64210;SDS011;50528;48.514;14.394;2023-02-03T01:56:13;2.30;;;1.70;;
64210;SDS011;50528;48.514;14.394;2023-02-03T01:56:50;2.40;;;1.80;;
64210;SDS011;50528;48.514;14.394;2023-02-03T01:57:31;2.30;;;1.90;;
64210;SDS011;50528;48.514;14.394;2023-02-03T01:58:30;2.60;;;1.90;;
64210;SDS011;50528;48.514;14.394;2023-02-03T01:59:04;2.50;;;1.80;;
64210;SDS011;50528;48.514;14.394;2023-02-03T01:59:39;2.40;;;1.80;;
64210;SDS011;50528;48.514;14.394;2023-02-03T02:00:13;2.20;;;1.70;;
64210;SDS011;50528;48.514;14.394;2023-02-03T02:00:47;2.70;;;1.80;;
64210;SDS011;50528;48.514;14.394;2023-02-03T02:01:24;2.60;;;2.00;;
64210;SDS011;50528;48.514;14.394;2023-02-03T02:02:12;2.80;;;2.10;;
64210;SDS011;50528;48.514;14.394;2023-02-03T02:02:46;2.70;;;2.10;;
64210;SDS011;50528;48.514;14.394;2023-02-03T02:03:23;2.50;;;1.80;;
64210;SDS011;50528;48.514;14.394;2023-02-03T02:04:01;2.50;;;1.80;;
64210;SDS011;50528;48.514;14.394;2023-02-03T02:05:37;2.50;;;1.70;;
64210;SDS011;50528;48.514;14.394;2023-02-03T02:06:13;2.60;;;2.00;;
64210;SDS011;50528;48.514;14.394;2023-02-03T02:06:47;2.40;;;1.80;;
64210;SDS011;50528;48.514;14.394;2023-02-03T02:07:23;2.30;;;1.70;;
64210;SDS011;50528;48.514;14.394;2023-02-03T02:07:57;2.30;;;1.70;;
64210;SDS011;50528;48.514;14.394;2023-02-03T02:08:34;2.70;;;1.90;;
64210;SDS011;50528;48.514;14.394;2023-02-03T02:09:09;2.30;;;1.70;;
64210;SDS011;50528;48.514;14.394;2023-02-03T02:09:43;2.40;;;1.70;;
64210;SDS011;50528;48.514;14.394;2023-02-03T02:10:19;2.50;;;1.90;;
64210;SDS011;50528;48.514;14.394;2023-02-03T02:10:53;2.50;;;1.90;;
64210;SDS011;50528;48.514;14.394;2023-02-03T02:11:27;2.00;;;1.60;;
64210;SDS011;50528;48.514;14.394;2023-02-03T02:12:01;2.40;;;1.80;;
64210;SDS011;50528;48.514;14.394;2023-02-03T02:12:34;2.30;;;1.70;;
64210;SDS011;50528;48.514;14.394;2023-02-03T02:13:08;2.60;;;1.90;;
64210;SDS011;50528;48.514;14.394;2023-02-03T02:13:41;2.40;;;1.80;;
64210;SDS011;50528;48.514;14.394;2023-02-03T02:14:16;2.30;;;1.70;;
64210;SDS011;50528;48.514;14.394;2023-02-03T02:14:50;2.40;;;1.80;;
64210;SDS011;50528;48.514;14.394;2023-02-03T02:20:53;2.10;;;1.40;;
64210;SDS011;50528;48.514;14.394;2023-02-03T02:22:23;2.10;;;1.40;;
64210;SDS011;50528;48.514;14.394;2023-02-03T02:24:46;2.20;;;1.60;;
64210;SDS011;50528;48.514;14.394;2023-02-03T02:26:16;2.00;;;1.20;;
64210;SDS011;50528;48.514;14.394;2023-02-03T02:28:31;2.00;;;1.40;;
64210;SDS011;50528;48.514;14.394;2023-02-03T02:32:09;2.10;;;1.30;;
64210;SDS011;50528;48.514;14.394;2023-02-03T02:33:47;2.00;;;1.40;;
64210;SDS011;50528;48.514;14.394;2023-02-03T02:35:57;1.70;;;1.20;;
64210;SDS011;50528;48.514;14.394;2023-02-03T02:37:58;2.20;;;1.10;;
64210;SDS011;50528;48.514;14.394;2023-02-03T02:39:38;1.40;;;0.80;;
64210;SDS011;50528;48.514;14.394;2023-02-03T02:40:29;2.00;;;1.20;;
64210;SDS011;50528;48.514;14.394;2023-02-03T02:42:24;1.90;;;1.10;;
64210;SDS011;50528;48.514;14.394;2023-02-03T02:44:43;1.80;;;1.10;;
64210;SDS011;50528;48.514;14.394;2023-02-03T02:45:25;2.00;;;1.30;;
64210;SDS011;50528;48.514;14.394;2023-02-03T02:46:05;1.80;;;1.10;;
64210;SDS011;50528;48.514;14.394;2023-02-03T02:46:53;2.10;;;1.20;;
64210;SDS011;50528;48.514;14.394;2023-02-03T02:47:31;1.90;;;1.00;;
64210;SDS011;50528;48.514;14.394;2023-02-03T02:48:07;1.90;;;1.30;;
64210;SDS011;50528;48.514;14.394;2023-02-03T02:48:49;2.00;;;1.30;;
64210;SDS011;50528;48.514;14.394;2023-02-03T02:51:18;2.20;;;1.20;;
64210;SDS011;50528;48.514;14.394;2023-02-03T02:51:54;1.80;;;1.00;;
64210;SDS011;50528;48.514;14.394;2023-02-03T02:52:31;1.80;;;1.10;;
64210;SDS011;50528;48.514;14.394;2023-02-03T02:53:09;1.90;;;1.20;;
64210;SDS011;50528;48.514;14.394;2023-02-03T02:53:47;1.90;;;1.10;;
64210;SDS011;50528;48.514;14.394;2023-02-03T02:54:26;1.80;;;1.10;;
64210;SDS011;50528;48.514;14.394;2023-02-03T02:56:04;1.70;;;1.00;;
64210;SDS011;50528;48.514;14.394;2023-02-03T02:56:42;1.90;;;1.10;;
64210;SDS011;50528;48.514;14.394;2023-02-03T02:57:20;1.50;;;1.00;;
64210;SDS011;50528;48.514;14.394;2023-02-03T02:58:03;1.90;;;1.10;;
64210;SDS011;50528;48.514;14.394;2023-02-03T02:59:15;1.50;;;0.90;;
64210;SDS011;50528;48.514;14.394;2023-02-03T02:59:49;1.60;;;0.90;;
64210;SDS011;50528;48.514;14.394;2023-02-03T03:00:22;1.80;;;1.10;;
64210;SDS011;50528;48.514;14.394;2023-02-03T03:00:56;1.40;;;0.90;;
64210;SDS011;50528;48.514;14.394;2023-02-03T03:01:30;1.40;;;0.80;;
64210;SDS011;50528;48.514;14.394;2023-02-03T03:02:03;1.60;;;0.90;;
64210;SDS011;50528;48.514;14.394;2023-02-03T03:02:37;1.60;;;0.90;;
64210;SDS011;50528;48.514;14.394;2023-02-03T03:03:18;1.40;;;0.80;;
64210;SDS011;50528;48.514;14.394;2023-02-03T03:03:53;1.50;;;0.90;;
64210;SDS011;50528;48.514;14.394;2023-02-03T03:04:27;1.70;;;1.00;;
64210;SDS011;50528;48.514;14.394;2023-02-03T03:05:04;1.30;;;0.70;;
64210;SDS011;50528;48.514;14.394;2023-02-03T03:05:48;1.30;;;0.70;;
64210;SDS011;50528;48.514;14.394;2023-02-03T03:06:29;1.40;;;0.80;;
64210;SDS011;50528;48.514;14.394;2023-02-03T03:07:12;1.50;;;0.80;;
64210;SDS011;50528;48.514;14.394;2023-02-03T03:07:52;1.20;;;0.70;;
64210;SDS011;50528;48.514;14.394;2023-02-03T03:09:32;1.50;;;0.70;;
64210;SDS011;50528;48.514;14.394;2023-02-03T03:10:09;1.20;;;0.70;;
64210;SDS011;50528;48.514;14.394;2023-02-03T03:10:45;0.90;;;0.60;;
64210;SDS011;50528;48.514;14.394;2023-02-03T03:11:19;1.40;;;0.70;;
64210;SDS011;50528;48.514;14.394;2023-02-03T03:11:54;1.20;;;0.70;;
64210;SDS011;50528;48.514;14.394;2023-02-03T03:12:36;1.30;;;0.70;;
64210;SDS011;50528;48.514;14.394;2023-02-03T03:13:18;1.20;;;0.60;;
64210;SDS011;50528;48.514;14.394;2023-02-03T03:13:57;1.20;;;0.70;;
64210;SDS011;50528;48.514;14.394;2023-02-03T03:14:31;1.30;;;0.70;;
64210;SDS011;50528;48.514;14.394;2023-02-03T03:15:13;1.40;;;0.80;;
64210;SDS011;50528;48.514;14.394;2023-02-03T03:15:52;1.00;;;0.70;;
64210;SDS011;50528;48.514;14.394;2023-02-03T03:16:28;1.40;;;0.80;;
64210;SDS011;50528;48.514;14.394;2023-02-03T03:17:25;1.00;;;0.60;;
64210;SDS011;50528;48.514;14.394;2023-02-03T03:18:18;1.00;;;0.60;;
64210;SDS011;50528;48.514;14.394;2023-02-03T03:19:10;1.20;;;0.60;;
64210;SDS011;50528;48.514;14.394;2023-02-03T03:19:49;1.00;;;0.60;;
64210;SDS011;50528;48.514;14.394;2023-02-03T03:20:27;0.90;;;0.60;;
64210;SDS011;50528;48.514;14.394;2023-02-03T03:21:04;0.80;;;0.60;;
64210;SDS011;50528;48.514;14.394;2023-02-03T03:21:45;1.10;;;0.60;;
64210;SDS011;50528;48.514;14.394;2023-02-03T03:22:27;1.00;;;0.60;;
64210;SDS011;50528;48.514;14.394;2023-02-03T03:23:40;0.90;;;0.60;;
64210;SDS011;50528;48.514;14.394;2023-02-03T03:24:18;1.20;;;0.70;;
64210;SDS011;50528;48.514;14.394;2023-02-03T03:24:59;1.10;;;0.60;;
64210;SDS011;50528;48.514;14.394;2023-02-03T03:26:17;0.90;;;0.60;;
64210;SDS011;50528;48.514;14.394;2023-02-03T03:27:06;0.80;;;0.50;;
64210;SDS011;50528;48.514;14.394;2023-02-03T03:27:48;1.10;;;0.60;;
64210;SDS011;50528;48.514;14.394;2023-02-03T03:28:29;1.30;;;0.60;;
64210;SDS011;50528;48.514;14.394;2023-02-03T03:29:49;1.00;;;0.60;;
64210;SDS011;50528;48.514;14.394;2023-02-03T03:30:32;1.10;;;0.60;;
64210;SDS011;50528;48.514;14.394;2023-02-03T03:31:10;0.70;;;0.50;;
64210;SDS011;50528;48.514;14.394;2023-02-03T03:31:44;1.20;;;0.70;;
64210;SDS011;50528;48.514;14.394;2023-02-03T03:32:18;0.90;;;0.60;;
64210;SDS011;50528;48.514;14.394;2023-02-03T03:32:52;1.10;;;0.60;;
64210;SDS011;50528;48.514;14.394;2023-02-03T03:33:25;1.10;;;0.60;;
64210;SDS011;50528;48.514;14.394;2023-02-03T03:33:59;0.90;;;0.50;;
64210;SDS011;50528;48.514;14.394;2023-02-03T03:34:34;1.20;;;0.70;;
64210;SDS011;50528;48.514;14.394;2023-02-03T03:35:07;1.10;;;0.70;;
64210;SDS011;50528;48.514;14.394;2023-02-03T03:35:44;1.10;;;0.60;;
64210;SDS011;50528;48.514;14.394;2023-02-03T03:36:31;0.80;;;0.60;;
64210;SDS011;50528;48.514;14.394;2023-02-03T03:37:33;0.90;;;0.50;;
64210;SDS011;50528;48.514;14.394;2023-02-03T03:38:10;0.60;;;0.50;;
64210;SDS011;50528;48.514;14.394;2023-02-03T03:40:41;0.80;;;0.50;;
64210;SDS011;50528;48.514;14.394;2023-02-03T03:42:17;0.80;;;0.50;;
64210;SDS011;50528;48.514;14.394;2023-02-03T03:42:53;0.50;;;0.40;;
64210;SDS011;50528;48.514;14.394;2023-02-03T03:43:33;0.80;;;0.50;;
64210;SDS011;50528;48.514;14.394;2023-02-03T03:44:12;0.60;;;0.50;;
64210;SDS011;50528;48.514;14.394;2023-02-03T03:46:42;0.60;;;0.50;;
64210;SDS011;50528;48.514;14.394;2023-02-03T03:47:28;0.70;;;0.50;;
64210;SDS011;50528;48.514;14.394;2023-02-03T03:48:57;0.60;;;0.50;;
64210;SDS011;50528;48.514;14.394;2023-02-03T03:49:34;0.90;;;0.50;;
64210;SDS011;50528;48.514;14.394;2023-02-03T03:50:10;1.00;;;0.60;;
64210;SDS011;50528;48.514;14.394;2023-02-03T03:50:49;1.00;;;0.60;;
64210;SDS011;50528;48.514;14.394;2023-02-03T03:51:55;0.80;;;0.60;;
64210;SDS011;50528;48.514;14.394;2023-02-03T03:52:35;0.60;;;0.50;;
64210;SDS011;50528;48.514;14.394;2023-02-03T03:53:10;0.90;;;0.50;;
64210;SDS011;50528;48.514;14.394;2023-02-03T03:53:45;0.90;;;0.50;;
64210;SDS011;50528;48.514;14.394;2023-02-03T03:54:22;0.80;;;0.50;;
64210;SDS011;50528;48.514;14.394;2023-02-03T03:54:58;0.70;;;0.50;;
64210;SDS011;50528;48.514;14.394;2023-02-03T03:55:37;0.70;;;0.50;;
64210;SDS011;50528;48.514;14.394;2023-02-03T03:56:17;0.60;;;0.50;;
64210;SDS011;50528;48.514;14.394;2023-02-03T03:57:42;0.70;;;0.50;;
64210;SDS011;50528;48.514;14.394;2023-02-03T03:58:23;0.70;;;0.50;;
64210;SDS011;50528;48.514;14.394;2023-02-03T03:59:00;0.70;;;0.40;;
64210;SDS011;50528;48.514;14.394;2023-02-03T03:59:36;1.10;;;0.60;;
64210;SDS011;50528;48.514;14.394;2023-02-03T04:00:14;0.90;;;0.50;;
64210;SDS011;50528;48.514;14.394;2023-02-03T04:00:52;0.60;;;0.50;;
64210;SDS011;50528;48.514;14.394;2023-02-03T04:01:28;0.90;;;0.60;;
64210;SDS011;50528;48.514;14.394;2023-02-03T04:02:02;0.70;;;0.50;;
64210;SDS011;50528;48.514;14.394;2023-02-03T04:02:38;0.70;;;0.50;;
64210;SDS011;50528;48.514;14.394;2023-02-03T04:03:16;0.70;;;0.50;;
64210;SDS011;50528;48.514;14.394;2023-02-03T04:03:59;0.70;;;0.50;;
64210;SDS011;50528;48.514;14.394;2023-02-03T04:04:35;0.80;;;0.50;;
64210;SDS011;50528;48.514;14.394;2023-02-03T04:05:18;0.70;;;0.50;;
64210;SDS011;50528;48.514;14.394;2023-02-03T04:05:52;0.70;;;0.50;;
64210;SDS011;50528;48.514;14.394;2023-02-03T04:06:25;0.70;;;0.50;;
64210;SDS011;50528;48.514;14.394;2023-02-03T04:07:01;0.60;;;0.50;;
64210;SDS011;50528;48.514;14.394;2023-02-03T04:07:45;0.90;;;0.60;;
64210;SDS011;50528;48.514;14.394;2023-02-03T04:08:19;0.80;;;0.50;;
64210;SDS011;50528;48.514;14.394;2023-02-03T04:08:52;0.90;;;0.60;;
64210;SDS011;50528;48.514;14.394;2023-02-03T04:09:26;0.60;;;0.40;;
64210;SDS011;50528;48.514;14.394;2023-02-03T04:09:59;0.60;;;0.40;;
64210;SDS011;50528;48.514;14.394;2023-02-03T04:10:34;0.70;;;0.50;;
64210;SDS011;50528;48.514;14.394;2023-02-03T04:11:11;0.70;;;0.50;;
64210;SDS011;50528;48.514;14.394;2023-02-03T04:12:05;0.80;;;0.50;;
64210;SDS011;50528;48.514;14.394;2023-02-03T04:12:42;0.60;;;0.40;;
64210;SDS011;50528;48.514;14.394;2023-02-03T04:13:19;0.90;;;0.60;;
64210;SDS011;50528;48.514;14.394;2023-02-03T04:13:52;0.70;;;0.50;;